Time;durP1;ratioP1;P1;durP2;ratioP2;P2;SDS_P1;SDS_P2;PMS_P1;PMS_P2;Temp;Humidity;BMP_temperature;BMP_pressure;BME280_temperature;BME280_humidity;BME280_pressure;Samples;Min_cycle;Max_cycle;Signal;HPM_P1;HPM_P2
2021/12/31 00:02:22;;;;;;;5.97;4.55;;;;;;;15.44;69.14;97866.41;6025424;23;20253;-80
2021/12/31 00:04:49;;;;;;;8.30;5.10;;;;;;;15.40;69.01;97863.50;5993228;23;20220;-80
2021/12/31 00:07:14;;;;;;;8.07;4.90;;;;;;;15.48;68.82;97864.88;5994580;23;20237;-79
2021/12/31 00:09:40;;;;;;;9.95;4.68;;;;;;;15.44;68.54;97848.03;6026694;23;20219;-80
2021/12/31 00:12:07;;;;;;;7.90;5.03;;;;;;;15.36;69.12;97854.59;6017721;23;20308;-79
2021/12/31 00:14:34;;;;;;;8.63;4.78;;;;;;;15.39;69.24;97854.09;5969026;23;20310;-80
2021/12/31 00:16:59;;;;;;;6.65;4.60;;;;;;;15.31;69.48;97859.81;6050711;23;20221;-80
2021/12/31 00:19:28;;;;;;;8.82;4.97;;;;;;;15.20;69.35;97853.75;6026647;23;20143;-80
2021/12/31 00:21:54;;;;;;;8.60;4.93;;;;;;;15.31;69.00;97865.84;6027049;23;20123;-80
2021/12/31 00:24:19;;;;;;;8.23;5.40;;;;;;;15.23;69.70;97866.34;5992559;23;20241;-80
2021/12/31 00:26:44;;;;;;;6.20;4.80;;;;;;;15.19;69.26;97872.38;5992874;23;20202;-80
2021/12/31 00:29:10;;;;;;;7.18;4.70;;;;;;;15.20;69.57;97866.88;6025858;23;20186;-80
2021/12/31 00:31:35;;;;;;;8.68;4.75;;;;;;;15.23;69.38;97870.81;6026192;23;20146;-80
2021/12/31 00:34:00;;;;;;;7.45;4.72;;;;;;;15.32;69.31;97869.28;5993694;23;20249;-80
2021/12/31 00:36:47;;;;;;;8.18;4.82;;;;;;;15.13;69.19;97866.31;5995328;23;20185;-80
2021/12/31 00:39:16;;;;;;;6.15;4.35;;;;;;;15.20;68.89;97860.81;6029090;23;20147;-79
2021/12/31 00:41:42;;;;;;;9.57;4.57;;;;;;;15.28;68.83;97862.97;6028505;23;20203;-80
2021/12/31 00:44:08;;;;;;;8.02;4.78;;;;;;;15.26;69.09;97859.81;6027901;23;20170;-80
2021/12/31 00:46:33;;;;;;;9.30;5.03;;;;;;;15.11;69.80;97853.47;6028679;23;20396;-81
2021/12/31 00:49:02;;;;;;;6.38;4.78;;;;;;;15.29;69.48;97854.84;5994967;23;20265;-80
2021/12/31 00:51:28;;;;;;;6.78;4.78;;;;;;;15.27;69.18;97851.69;6028625;23;20179;-80
2021/12/31 00:53:53;;;;;;;8.23;5.00;;;;;;;15.24;69.05;97851.41;5993946;23;20273;-80
2021/12/31 00:56:19;;;;;;;10.20;4.80;;;;;;;15.20;68.99;97845.91;5994727;23;20124;-80
2021/12/31 00:58:45;;;;;;;8.73;5.40;;;;;;;15.23;69.43;97834.09;6027857;23;20642;-80
2021/12/31 01:01:17;;;;;;;10.90;5.03;;;;;;;15.16;69.12;97843.00;6028614;23;20178;-80
2021/12/31 01:03:43;;;;;;;9.82;5.50;;;;;;;15.24;69.10;97846.16;5995259;23;20265;-80
2021/12/31 01:06:08;;;;;;;6.55;4.70;;;;;;;15.16;69.14;97839.56;6031230;23;20264;-80
2021/12/31 01:08:34;;;;;;;9.18;5.55;;;;;;;15.13;68.74;97830.41;6018820;23;20167;-80
2021/12/31 01:10:59;;;;;;;7.70;5.22;;;;;;;15.06;69.02;97821.97;5994414;23;20222;-80
2021/12/31 01:13:33;;;;;;;8.80;5.38;;;;;;;15.06;68.76;97834.28;6027915;23;20625;-80
2021/12/31 01:16:01;;;;;;;8.75;5.22;;;;;;;14.98;68.78;97831.13;6027407;23;20306;-80
2021/12/31 01:19:44;;;;;;;9.25;5.75;;;;;;;14.94;69.07;97831.88;6027846;23;20215;-81
2021/12/31 01:21:12;;;;;;;9.25;5.78;;;;;;;14.90;69.33;97842.09;6019401;23;20225;-80
2021/12/31 01:23:37;;;;;;;7.00;4.93;;;;;;;14.93;69.12;97835.56;6051987;23;20597;-80
2021/12/31 01:26:03;;;;;;;7.53;5.07;;;;;;;14.95;69.12;97828.22;6030106;23;20170;-79
2021/12/31 01:28:28;;;;;;;7.30;4.57;;;;;;;14.95;69.53;97828.22;6027461;23;20182;-80
2021/12/31 01:30:53;;;;;;;6.90;5.10;;;;;;;14.95;68.96;97836.88;5994380;23;20152;-80
2021/12/31 01:33:19;;;;;;;9.15;5.47;;;;;;;14.91;69.43;97827.16;6026973;23;20207;-80
2021/12/31 01:35:44;;;;;;;7.55;5.25;;;;;;;14.92;69.43;97823.47;6027867;23;20185;-80
2021/12/31 01:38:09;;;;;;;7.47;4.82;;;;;;;14.92;69.40;97828.72;6028158;23;20298;-80
2021/12/31 01:40:35;;;;;;;7.35;5.15;;;;;;;14.93;69.66;97828.47;5994714;23;20219;-80
2021/12/31 01:43:00;;;;;;;8.20;4.90;;;;;;;14.98;69.34;97827.72;5979948;23;20258;-81
2021/12/31 01:45:30;;;;;;;8.43;4.20;;;;;;;15.00;69.49;97835.31;5994803;23;20252;-81
2021/12/31 01:47:57;;;;;;;7.55;4.50;;;;;;;15.02;68.95;97833.22;5995177;23;20158;-80
2021/12/31 01:50:25;;;;;;;6.10;3.63;;;;;;;14.98;68.95;97827.72;6051720;23;20163;-80
2021/12/31 01:52:50;;;;;;;7.38;3.72;;;;;;;15.02;69.13;97828.00;6026666;23;20182;-80
2021/12/31 01:55:16;;;;;;;7.25;3.83;;;;;;;14.96;69.45;97824.56;6027759;23;20626;-80
2021/12/31 01:57:42;;;;;;;5.20;3.08;;;;;;;14.94;68.73;97831.88;6027104;23;20186;-80
2021/12/31 02:00:09;;;;;;;6.22;2.78;;;;;;;14.87;69.44;97826.88;6024545;23;20476;-80
2021/12/31 02:02:35;;;;;;;3.90;2.80;;;;;;;14.82;69.73;97826.06;6024327;23;20213;-80
2021/12/31 02:05:02;;;;;;;5.50;3.08;;;;;;;14.90;69.54;97817.72;5969226;23;20667;-80
2021/12/31 02:07:28;;;;;;;4.78;3.25;;;;;;;14.89;69.33;97822.19;6026725;23;20658;-80
2021/12/31 02:09:54;;;;;;;6.25;2.83;;;;;;;14.92;68.99;97828.72;6027825;23;20178;-80
2021/12/31 02:12:21;;;;;;;4.50;2.65;;;;;;;14.92;69.33;97829.50;5993749;23;20230;-80
2021/12/31 02:14:49;;;;;;;6.32;2.22;;;;;;;14.94;69.21;97834.50;5993464;23;20189;-81
2021/12/31 02:17:14;;;;;;;5.93;2.83;;;;;;;14.91;68.91;97835.81;5970069;23;20178;-80
2021/12/31 02:19:40;;;;;;;4.05;2.75;;;;;;;14.84;69.38;97835.25;5993687;23;20159;-80
2021/12/31 02:22:07;;;;;;;4.03;2.30;;;;;;;14.76;69.43;97836.53;5992675;23;20195;-80
2021/12/31 02:24:35;;;;;;;2.92;2.38;;;;;;;14.77;69.48;97840.72;6026784;23;20629;-80
2021/12/31 02:27:00;;;;;;;3.67;2.03;;;;;;;14.80;69.34;97847.28;6027145;23;20246;-80
2021/12/31 02:29:26;;;;;;;4.38;2.67;;;;;;;14.77;69.46;97838.13;6027147;23;20341;-80
2021/12/31 02:31:53;;;;;;;4.35;2.60;;;;;;;14.77;69.54;97832.88;5993378;23;20155;-80
2021/12/31 02:34:18;;;;;;;2.20;2.00;;;;;;;14.82;69.64;97831.31;6025650;23;20256;-80
2021/12/31 02:36:44;;;;;;;3.03;1.88;;;;;;;14.77;69.29;97826.81;6027330;23;20583;-80
2021/12/31 02:39:10;;;;;;;3.03;1.77;;;;;;;14.76;69.34;97835.75;5994066;23;20601;-80
2021/12/31 02:41:35;;;;;;;3.53;1.90;;;;;;;14.81;69.24;97838.38;6051491;23;20169;-80
2021/12/31 02:44:01;;;;;;;4.70;1.90;;;;;;;14.78;69.20;97847.53;6017093;23;20217;-80
2021/12/31 02:46:26;;;;;;;3.30;2.00;;;;;;;14.75;69.61;97853.31;6026832;23;20613;-80
2021/12/31 02:48:56;;;;;;;2.53;2.33;;;;;;;14.76;69.35;97846.22;6002316;23;20617;-80
2021/12/31 02:51:23;;;;;;;3.00;1.67;;;;;;;14.69;69.60;97845.66;6027955;23;20099;-80
2021/12/31 02:53:51;;;;;;;2.45;1.60;;;;;;;14.67;69.47;97847.72;6016872;23;20645;-80
2021/12/31 02:56:17;;;;;;;2.20;1.92;;;;;;;14.74;69.62;97854.34;5993288;23;20179;-80
2021/12/31 02:58:43;;;;;;;4.35;1.80;;;;;;;14.70;69.67;97855.91;6017021;23;20578;-80
2021/12/31 03:01:09;;;;;;;4.68;1.80;;;;;;;14.77;69.39;97847.78;6002738;23;20147;-80
2021/12/31 03:03:35;;;;;;;3.45;1.98;;;;;;;14.71;69.54;97849.59;6026435;23;20288;-80
2021/12/31 03:06:01;;;;;;;3.70;1.95;;;;;;;14.75;69.80;97850.69;6026739;23;20162;-80
2021/12/31 03:08:30;;;;;;;4.93;1.90;;;;;;;14.60;69.71;97842.75;5993109;23;20193;-80
2021/12/31 03:10:56;;;;;;;4.13;1.92;;;;;;;14.73;69.38;97844.88;5992406;23;20169;-81
2021/12/31 03:13:23;;;;;;;3.70;1.88;;;;;;;14.70;69.52;97842.81;5969014;23;20180;-80
2021/12/31 03:15:49;;;;;;;1.80;1.50;;;;;;;14.69;69.64;97843.84;5993128;23;20313;-80
2021/12/31 03:18:15;;;;;;;2.28;1.60;;;;;;;14.67;69.50;97851.16;5993211;23;20285;-80
2021/12/31 03:20:43;;;;;;;3.47;1.75;;;;;;;14.64;69.47;97838.56;6026436;23;20495;-80
2021/12/31 03:23:10;;;;;;;3.92;1.90;;;;;;;14.64;69.20;97832.53;6026825;23;20351;-81
2021/12/31 03:25:36;;;;;;;1.90;1.70;;;;;;;14.70;69.22;97837.56;6026147;23;20208;-81
2021/12/31 03:28:02;;;;;;;3.55;1.98;;;;;;;14.70;69.48;97832.31;6002467;23;20171;-81
2021/12/31 03:30:27;;;;;;;7.00;2.20;;;;;;;14.67;69.18;97824.16;5993473;23;20190;-81
2021/12/31 03:32:53;;;;;;;2.88;2.05;;;;;;;14.67;69.25;97830.19;6026116;23;20175;-80
2021/12/31 03:35:19;;;;;;;5.10;1.88;;;;;;;14.63;69.38;97821.25;6026777;23;20170;-81
2021/12/31 03:37:44;;;;;;;3.75;1.77;;;;;;;14.58;69.44;97821.19;6026910;23;20233;-80
2021/12/31 03:40:11;;;;;;;4.50;2.30;;;;;;;14.64;69.41;97827.28;5969362;23;20204;-80
2021/12/31 03:42:36;;;;;;;3.50;1.73;;;;;;;14.61;69.22;97826.75;6016935;23;20364;-80
2021/12/31 03:45:02;;;;;;;8.50;2.40;;;;;;;14.55;69.55;97830.38;6017337;23;20622;-80
2021/12/31 03:47:28;;;;;;;3.67;1.90;;;;;;;14.58;69.60;97829.91;6026918;23;20237;-80
2021/12/31 03:49:54;;;;;;;3.53;2.10;;;;;;;14.58;69.13;97829.06;6026141;23;20674;-81
2021/12/31 03:52:19;;;;;;;3.13;2.05;;;;;;;14.57;69.63;97824.88;6016361;23;20142;-80
2021/12/31 03:54:44;;;;;;;2.67;1.73;;;;;;;14.60;69.16;97832.25;5992904;23;20558;-80
2021/12/31 03:57:10;;;;;;;3.47;1.70;;;;;;;14.61;69.27;97828.56;6026679;23;20166;-80
2021/12/31 03:59:35;;;;;;;2.95;1.38;;;;;;;14.68;69.24;97829.13;6026376;23;20221;-81
2021/12/31 04:02:00;;;;;;;2.60;1.88;;;;;;;14.65;69.06;97827.03;6026362;23;20233;-80
2021/12/31 04:04:26;;;;;;;2.20;1.58;;;;;;;14.66;69.46;97830.44;6026089;23;20191;-81
2021/12/31 04:06:52;;;;;;;2.95;1.80;;;;;;;14.58;69.39;97826.44;5993099;23;20186;-81
2021/12/31 04:09:17;;;;;;;4.30;2.08;;;;;;;14.68;68.99;97829.13;6018638;23;20214;-80
2021/12/31 04:11:42;;;;;;;3.50;1.88;;;;;;;14.63;69.33;97823.88;5994689;23;20178;-81
2021/12/31 04:14:08;;;;;;;2.63;2.00;;;;;;;14.60;69.27;97825.19;5994654;23;20197;-80
2021/12/31 04:16:33;;;;;;;3.83;2.10;;;;;;;14.58;68.96;97815.94;5994860;23;20667;-80
2021/12/31 04:18:58;;;;;;;3.70;2.08;;;;;;;14.61;69.35;97823.34;6018741;23;20284;-81
2021/12/31 04:21:24;;;;;;;3.55;1.90;;;;;;;14.56;69.12;97815.41;5995129;23;20167;-81
2021/12/31 04:24:06;;;;;;;1.98;1.67;;;;;;;14.55;69.41;97816.47;6028018;23;20255;-81
2021/12/31 04:26:31;;;;;;;3.42;1.35;;;;;;;14.54;69.30;97812.28;5996755;23;20143;-81
2021/12/31 04:28:57;;;;;;;4.20;1.77;;;;;;;14.49;69.32;97799.91;6028560;23;20655;-81
2021/12/31 04:31:23;;;;;;;3.63;1.90;;;;;;;14.47;69.70;97791.53;5994629;23;20202;-81
2021/12/31 04:33:48;;;;;;;5.20;2.05;;;;;;;14.42;69.55;97792.28;6027791;23;20173;-81
2021/12/31 04:36:14;;;;;;;3.58;2.03;;;;;;;14.47;69.64;97799.38;6028342;23;20594;-81
2021/12/31 04:38:39;;;;;;;2.88;1.90;;;;;;;14.49;69.38;97794.69;6028327;23;20173;-81
2021/12/31 04:41:05;;;;;;;3.08;1.60;;;;;;;14.49;69.35;97786.81;5995304;23;20178;-81
2021/12/31 04:43:30;;;;;;;4.88;2.33;;;;;;;14.49;69.27;97783.41;5994566;23;20249;-81
2021/12/31 04:45:56;;;;;;;3.33;2.00;;;;;;;14.48;69.29;97781.81;6028216;23;20616;-80
2021/12/31 04:48:21;;;;;;;3.13;1.40;;;;;;;14.35;69.19;97780.47;5995254;23;20061;-81
2021/12/31 04:50:46;;;;;;;3.20;2.05;;;;;;;14.35;68.76;97773.38;6028931;23;20334;-82
2021/12/31 04:53:12;;;;;;;4.25;2.08;;;;;;;14.24;68.39;97779.63;6026561;23;20597;-81
2021/12/31 04:55:37;;;;;;;5.95;2.22;;;;;;;14.27;68.70;97773.06;6004075;23;20370;-81
2021/12/31 04:58:03;;;;;;;3.47;1.92;;;;;;;14.25;68.37;97781.19;5980749;23;20679;-81
2021/12/31 05:00:28;;;;;;;3.03;1.98;;;;;;;14.21;68.36;97787.97;5980242;23;20164;-81
2021/12/31 05:02:53;;;;;;;3.70;1.75;;;;;;;14.17;68.24;97776.41;6003390;23;20339;-80
2021/12/31 05:05:19;;;;;;;5.28;2.50;;;;;;;13.98;68.49;97776.03;6003223;23;20172;-81
2021/12/31 05:07:44;;;;;;;3.40;2.22;;;;;;;14.06;68.49;97775.56;6004408;23;20180;-81
2021/12/31 05:10:10;;;;;;;4.18;1.90;;;;;;;13.96;68.68;97768.41;5947232;23;20183;-81
2021/12/31 05:12:37;;;;;;;2.72;1.65;;;;;;;13.98;68.72;97770.78;5947002;23;20275;-81
2021/12/31 05:15:08;;;;;;;7.95;2.10;;;;;;;13.79;67.80;97767.78;6004352;23;20259;-81
2021/12/31 05:17:35;;;;;;;5.18;2.17;;;;;;;13.81;68.34;97768.31;6003946;23;20187;-81
2021/12/31 05:20:00;;;;;;;4.15;1.92;;;;;;;13.77;68.61;97772.47;6004186;23;20668;-81
2021/12/31 05:22:26;;;;;;;3.38;2.33;;;;;;;13.79;68.67;97771.16;6003366;23;20191;-81
2021/12/31 05:24:51;;;;;;;3.78;2.20;;;;;;;13.80;68.97;97767.53;5970279;23;20115;-80
2021/12/31 05:27:16;;;;;;;3.80;1.90;;;;;;;13.71;68.46;97761.19;5970769;23;20542;-80
2021/12/31 05:29:42;;;;;;;4.13;1.73;;;;;;;13.63;68.65;97762.41;5980299;23;20187;-81
2021/12/31 05:32:08;;;;;;;3.17;2.33;;;;;;;13.60;68.99;97764.75;5979330;23;20227;-80
2021/12/31 05:34:33;;;;;;;2.35;1.75;;;;;;;13.47;68.74;97765.97;6027648;23;20666;-80
2021/12/31 05:36:58;;;;;;;4.50;2.13;;;;;;;13.34;69.00;97763.75;6003540;23;20287;-81
2021/12/31 05:39:25;;;;;;;4.40;2.00;;;;;;;13.38;68.72;97772.66;5970600;23;20161;-81
2021/12/31 05:41:52;;;;;;;3.92;1.85;;;;;;;13.38;68.79;97764.81;6002738;23;20513;-81
2021/12/31 05:44:17;;;;;;;4.55;2.20;;;;;;;13.38;68.86;97767.44;6003729;23;20183;-81
2021/12/31 05:46:47;;;;;;;4.80;2.50;;;;;;;13.33;68.83;97762.94;5979737;23;20157;-82
2021/12/31 05:49:13;;;;;;;2.67;1.95;;;;;;;13.38;68.58;97770.03;5947607;23;20216;-81
2021/12/31 05:51:38;;;;;;;3.50;2.00;;;;;;;13.33;69.31;97770.78;5946299;23;20439;-80
2021/12/31 05:54:04;;;;;;;3.42;2.10;;;;;;;13.28;69.15;97778.53;5976774;23;20226;-81
2021/12/31 05:56:29;;;;;;;6.60;2.70;;;;;;;13.25;69.07;97785.06;6027453;23;20206;-81
2021/12/31 05:58:54;;;;;;;3.70;2.22;;;;;;;13.26;68.80;97784.03;5994186;23;20545;-80
2021/12/31 06:01:20;;;;;;;4.93;2.45;;;;;;;13.15;69.10;97786.78;6027090;23;20205;-80
2021/12/31 06:03:45;;;;;;;3.17;2.47;;;;;;;13.18;69.29;97781.84;6026520;23;20191;-81
2021/12/31 06:06:10;;;;;;;5.22;2.13;;;;;;;13.14;69.49;97785.97;5993581;23;20587;-81
2021/12/31 06:08:36;;;;;;;4.90;2.35;;;;;;;13.13;69.23;97792.25;6026544;23;20598;-80
2021/12/31 06:11:02;;;;;;;3.72;2.33;;;;;;;13.05;68.87;97798.69;6026649;23;20270;-81
2021/12/31 06:13:27;;;;;;;2.70;1.90;;;;;;;12.98;69.48;97807.78;5992872;23;20202;-80
2021/12/31 06:15:57;;;;;;;2.85;1.60;;;;;;;12.98;69.41;97803.34;5992973;23;20649;-80
2021/12/31 06:18:23;;;;;;;3.25;2.20;;;;;;;12.96;69.36;97804.63;5993507;23;20590;-81
2021/12/31 06:20:49;;;;;;;2.85;2.08;;;;;;;12.93;69.40;97792.81;5992687;23;20163;-81
2021/12/31 06:23:14;;;;;;;4.40;2.17;;;;;;;12.93;69.43;97791.00;6026888;23;20181;-80
2021/12/31 06:25:39;;;;;;;3.45;2.45;;;;;;;12.82;69.32;97789.31;6027258;23;20319;-81
2021/12/31 06:28:05;;;;;;;5.25;2.60;;;;;;;12.83;68.73;97783.03;6026458;23;20628;-81
2021/12/31 06:30:30;;;;;;;3.92;2.00;;;;;;;12.86;69.20;97779.94;5992725;23;20257;-80
2021/12/31 06:32:56;;;;;;;8.32;2.80;;;;;;;12.81;69.63;97782.47;6026241;23;20239;-80
2021/12/31 06:35:21;;;;;;;4.25;2.15;;;;;;;12.82;69.09;97794.53;5993557;23;20268;-81
2021/12/31 06:37:52;;;;;;;4.43;2.20;;;;;;;12.74;69.22;97790.50;6027148;23;20352;-81
2021/12/31 06:40:18;;;;;;;3.53;2.25;;;;;;;12.69;69.30;97787.81;5972010;23;20178;-81
2021/12/31 06:42:43;;;;;;;3.65;1.98;;;;;;;12.65;69.56;97793.81;6052253;23;20660;-80
2021/12/31 06:45:09;;;;;;;4.35;2.25;;;;;;;12.65;69.24;97799.81;5994091;23;20588;-80
2021/12/31 06:47:34;;;;;;;3.30;2.17;;;;;;;12.71;69.13;97804.06;6027897;23;20170;-81
2021/12/31 06:50:00;;;;;;;3.22;1.95;;;;;;;12.59;69.75;97799.97;5994031;23;20186;-81
2021/12/31 06:52:25;;;;;;;3.65;2.40;;;;;;;12.58;69.47;97801.00;6028041;23;20502;-81
2021/12/31 06:54:51;;;;;;;6.05;2.40;;;;;;;12.59;69.37;97802.59;5994078;23;20229;-80
2021/12/31 06:57:16;;;;;;;3.47;2.13;;;;;;;12.57;68.89;97796.81;5993613;23;20163;-80
2021/12/31 06:59:41;;;;;;;4.03;2.42;;;;;;;12.48;69.56;97793.84;6027494;23;20128;-80
2021/12/31 07:02:07;;;;;;;3.22;1.60;;;;;;;12.46;69.52;97791.47;6027611;23;20256;-80
2021/12/31 07:04:32;;;;;;;2.60;1.70;;;;;;;12.45;69.68;97791.69;6018250;23;20297;-81
2021/12/31 07:06:58;;;;;;;3.95;2.20;;;;;;;12.49;69.33;97791.00;5993568;23;20433;-80
2021/12/31 07:09:23;;;;;;;4.47;2.35;;;;;;;12.44;69.65;97790.09;5993728;23;20222;-80
2021/12/31 07:11:49;;;;;;;3.95;2.00;;;;;;;12.38;69.46;97778.03;5993492;23;20201;-80
2021/12/31 07:14:14;;;;;;;2.97;2.08;;;;;;;12.41;69.93;97780.94;6018601;23;20259;-80
2021/12/31 07:16:39;;;;;;;3.13;2.47;;;;;;;12.45;69.75;97791.69;6029679;23;20316;-81
2021/12/31 07:19:05;;;;;;;3.25;2.05;;;;;;;12.36;69.62;97788.72;6027132;23;20179;-81
2021/12/31 07:21:30;;;;;;;4.63;1.65;;;;;;;12.35;69.54;97790.53;5993042;23;20217;-81
2021/12/31 07:23:55;;;;;;;4.45;1.92;;;;;;;12.35;69.27;97774.06;6028107;23;20264;-80
2021/12/31 07:26:21;;;;;;;2.30;1.73;;;;;;;12.31;69.74;97776.38;6017417;23;20212;-80
2021/12/31 07:28:46;;;;;;;4.68;2.13;;;;;;;12.37;69.59;97782.44;5993270;23;20250;-80
2021/12/31 07:31:14;;;;;;;3.63;1.88;;;;;;;12.26;69.43;97780.75;6027144;23;20174;-80
2021/12/31 07:33:40;;;;;;;2.80;1.88;;;;;;;12.21;69.49;97773.63;6026297;23;20605;-80
2021/12/31 07:36:06;;;;;;;3.20;1.60;;;;;;;12.20;69.62;97773.84;6027168;23;20153;-80
2021/12/31 07:38:34;;;;;;;5.45;2.28;;;;;;;12.16;69.60;97765.72;5993405;23;20450;-80
2021/12/31 07:41:00;;;;;;;3.58;2.20;;;;;;;12.17;69.61;97773.31;6027111;23;20233;-80
2021/12/31 07:43:25;;;;;;;5.32;2.33;;;;;;;12.18;69.78;97768.88;6026403;23;20262;-80
2021/12/31 07:45:52;;;;;;;4.00;1.75;;;;;;;12.29;69.57;97772.44;5993570;23;20218;-80
2021/12/31 07:48:17;;;;;;;3.65;2.05;;;;;;;12.34;69.60;97781.13;5992751;23;20218;-80
2021/12/31 07:50:43;;;;;;;4.15;2.05;;;;;;;12.43;69.31;97781.50;6051199;23;20190;-80
2021/12/31 07:53:09;;;;;;;4.65;1.77;;;;;;;12.39;69.27;97785.63;5992830;23;20699;-80
2021/12/31 07:55:35;;;;;;;3.22;1.80;;;;;;;12.32;69.33;97790.22;6051307;23;20272;-80
2021/12/31 07:58:01;;;;;;;30.10;3.97;;;;;;;12.39;68.28;97790.03;5993920;23;20256;-80
2021/12/31 08:00:27;;;;;;;2.88;1.90;;;;;;;12.39;68.66;97783.00;6017397;23;20181;-80
2021/12/31 08:02:57;;;;;;;3.47;1.70;;;;;;;12.27;69.04;97788.34;5993254;23;20159;-80
2021/12/31 08:05:24;;;;;;;2.65;1.70;;;;;;;12.37;68.78;97777.22;6027056;23;20157;-80
2021/12/31 08:07:49;;;;;;;2.38;1.70;;;;;;;12.39;69.00;97780.41;5993286;23;20352;-80
2021/12/31 08:10:14;;;;;;;2.63;1.67;;;;;;;12.35;69.71;97784.50;5993645;23;20216;-81
2021/12/31 08:12:40;;;;;;;3.72;1.85;;;;;;;12.32;69.79;97779.75;5993205;23;20265;-80
2021/12/31 08:15:06;;;;;;;3.03;1.63;;;;;;;12.43;69.35;97791.94;5993749;23;20165;-80
2021/12/31 08:17:31;;;;;;;5.20;2.53;;;;;;;12.45;69.97;97789.09;6027374;23;20181;-80
2021/12/31 08:19:57;;;;;;;3.28;2.28;;;;;;;12.62;69.64;97800.28;6026348;23;20165;-80
2021/12/31 08:22:23;;;;;;;3.13;1.75;;;;;;;12.59;69.34;97799.97;6026979;23;20582;-80
2021/12/31 08:24:48;;;;;;;3.55;1.80;;;;;;;12.70;69.49;97801.69;5993185;23;20166;-80
2021/12/31 08:27:13;;;;;;;3.53;2.00;;;;;;;12.68;69.77;97798.53;5993595;23;20300;-80
2021/12/31 08:29:39;;;;;;;3.55;1.75;;;;;;;12.76;69.77;97808.56;5992975;23;20131;-80
2021/12/31 08:32:05;;;;;;;2.22;1.52;;;;;;;12.78;69.42;97805.69;6017007;23;20676;-80
2021/12/31 08:34:30;;;;;;;3.60;1.83;;;;;;;12.71;69.64;97805.88;6002539;23;20182;-81
2021/12/31 08:36:57;;;;;;;4.70;2.00;;;;;;;12.70;69.71;97806.94;6026970;23;20656;-81
2021/12/31 08:39:22;;;;;;;5.38;1.95;;;;;;;12.73;69.54;97793.34;6027613;23;20136;-81
2021/12/31 08:41:47;;;;;;;3.00;1.77;;;;;;;12.83;69.52;97787.47;5993462;23;20229;-81
2021/12/31 08:44:13;;;;;;;2.50;1.70;;;;;;;12.92;69.29;97789.41;6027077;23;20184;-80
2021/12/31 08:46:40;;;;;;;3.20;1.88;;;;;;;12.91;69.35;97790.44;5992695;23;20190;-81
2021/12/31 08:49:06;;;;;;;3.40;2.05;;;;;;;12.96;69.15;97792.34;6026656;23;20158;-80
2021/12/31 08:51:31;;;;;;;2.78;1.83;;;;;;;13.03;69.74;97794.78;6026153;23;20166;-81
2021/12/31 08:53:56;;;;;;;3.95;1.80;;;;;;;13.01;69.61;97802.84;5992810;23;20325;-81
2021/12/31 08:56:22;;;;;;;3.92;1.80;;;;;;;13.05;69.38;97805.75;5994137;23;20182;-81
2021/12/31 08:58:47;;;;;;;3.25;1.95;;;;;;;13.14;68.79;97803.50;6004051;23;20230;-81
2021/12/31 09:01:13;;;;;;;2.30;1.60;;;;;;;13.13;68.82;97802.72;6014467;23;20609;-81
2021/12/31 09:03:38;;;;;;;2.67;1.65;;;;;;;13.18;69.51;97813.25;6027048;23;20541;-81
2021/12/31 09:06:05;;;;;;;2.40;1.73;;;;;;;13.20;69.24;97818.22;5993150;23;20177;-81
2021/12/31 09:08:30;;;;;;;3.25;2.00;;;;;;;13.15;69.46;97811.09;6027246;23;20168;-81
2021/12/31 09:10:56;;;;;;;3.75;1.65;;;;;;;13.19;69.39;97811.41;5993866;23;20863;-82
2021/12/31 09:13:21;;;;;;;3.92;2.00;;;;;;;13.28;69.42;97802.88;5994896;23;20201;-81
2021/12/31 09:15:47;;;;;;;2.42;1.40;;;;;;;13.30;69.43;97810.50;5994333;23;20653;-82
2021/12/31 09:18:13;;;;;;;2.53;1.70;;;;;;;13.36;69.79;97809.50;5994371;23;20373;-81
2021/12/31 09:20:38;;;;;;;1.88;1.45;;;;;;;13.45;69.30;97808.06;6030032;23;20186;-82
2021/12/31 09:23:03;;;;;;;4.47;2.00;;;;;;;13.43;69.46;97801.47;5993911;23;20510;-82
2021/12/31 09:25:29;;;;;;;2.53;1.67;;;;;;;13.57;69.09;97789.59;5994035;23;20282;-81
2021/12/31 09:27:54;;;;;;;3.92;1.52;;;;;;;13.59;69.61;97784.91;6028380;23;20147;-82
2021/12/31 09:30:19;;;;;;;2.22;1.50;;;;;;;13.67;69.38;97779.22;5994537;23;20178;-82
2021/12/31 09:32:45;;;;;;;4.65;1.90;;;;;;;13.64;68.94;97784.94;6027696;23;20225;-82
2021/12/31 09:35:10;;;;;;;1.65;1.30;;;;;;;13.80;68.74;97782.44;6028284;23;20238;-82
2021/12/31 09:37:36;;;;;;;2.72;1.65;;;;;;;13.81;68.71;97784.81;6028525;23;20300;-82
2021/12/31 09:40:03;;;;;;;1.90;1.30;;;;;;;13.81;68.79;97784.00;5993749;23;20224;-82
2021/12/31 09:42:28;;;;;;;2.05;1.30;;;;;;;13.78;68.87;97792.38;5994242;23;20169;-82
2021/12/31 09:44:54;;;;;;;2.55;1.40;;;;;;;13.82;68.37;97783.75;5994452;23;20605;-82
2021/12/31 09:47:19;;;;;;;1.70;0.98;;;;;;;13.93;68.80;97787.28;5995211;23;20593;-82
2021/12/31 09:49:47;;;;;;;3.00;1.52;;;;;;;13.92;69.01;97779.66;5994409;23;20570;-83
2021/12/31 09:52:13;;;;;;;1.35;1.25;;;;;;;14.03;68.58;97782.09;6004359;23;20210;-83
2021/12/31 09:54:46;;;;;;;4.95;1.55;;;;;;;14.17;68.64;97781.66;6013958;23;20673;-83
2021/12/31 09:57:17;;;;;;;1.60;1.10;;;;;;;14.10;68.63;97778.47;6027669;23;20269;-83
2021/12/31 09:59:43;;;;;;;2.10;1.50;;;;;;;14.24;68.78;97771.75;5994759;23;20147;-83
2021/12/31 10:02:09;;;;;;;3.63;1.75;;;;;;;14.34;68.20;97771.81;5994078;23;20289;-83
2021/12/31 10:04:52;;;;;;;2.83;1.38;;;;;;;14.27;67.89;97773.06;6029355;23;20260;-83
2021/12/31 10:07:21;;;;;;;4.68;1.40;;;;;;;14.55;67.66;97782.41;5994444;23;20195;-83
2021/12/31 10:10:13;;;;;;;1.58;1.08;;;;;;;14.43;67.80;97787.84;5995411;23;20161;-83
2021/12/31 10:12:49;;;;;;;2.03;1.27;;;;;;;14.59;68.20;97778.25;5994121;23;20194;-83
2021/12/31 10:15:17;;;;;;;3.20;1.40;;;;;;;14.74;67.31;97780.16;6028222;23;20408;-83
2021/12/31 10:17:43;;;;;;;2.10;1.25;;;;;;;14.85;67.29;97770.50;6004097;23;20284;-83
2021/12/31 10:20:09;;;;;;;1.52;1.33;;;;;;;14.91;67.17;97780.75;5970522;23;20193;-83
2021/12/31 10:22:34;;;;;;;2.35;1.35;;;;;;;14.94;67.68;97771.56;6027876;23;20586;-83
2021/12/31 10:25:00;;;;;;;5.05;2.10;;;;;;;14.96;66.85;97774.75;6027699;23;20194;-83
2021/12/31 10:27:25;;;;;;;1.83;1.17;;;;;;;14.97;66.21;97792.03;5994574;23;20190;-83
2021/12/31 10:29:52;;;;;;;1.33;1.15;;;;;;;14.83;66.19;97796.97;5993877;23;20282;-82
2021/12/31 10:32:18;;;;;;;1.20;1.10;;;;;;;14.90;65.66;97804.59;6030323;23;20171;-83
2021/12/31 10:34:43;;;;;;;2.40;1.98;;;;;;;14.94;65.69;97808.28;6051778;23;20236;-82
2021/12/31 10:37:16;;;;;;;1.60;1.13;;;;;;;14.79;66.64;97806.41;6028320;23;20174;-82
2021/12/31 10:39:43;;;;;;;1.67;1.17;;;;;;;14.95;65.79;97802.00;5994533;23;20185;-82
2021/12/31 10:42:10;;;;;;;3.05;1.10;;;;;;;15.02;66.77;97810.41;6025933;23;20189;-83
2021/12/31 10:44:54;;;;;;;1.67;1.20;;;;;;;14.73;66.00;97805.56;5993146;23;20186;-82
2021/12/31 10:47:23;;;;;;;2.30;1.50;;;;;;;14.81;66.45;97806.94;6026969;23;20190;-83
2021/12/31 10:50:04;;;;;;;2.63;1.35;;;;;;;14.82;65.91;97800.63;6026867;23;20312;-83
2021/12/31 10:52:36;;;;;;;3.20;1.63;;;;;;;15.01;66.59;97816.72;6017372;23;20349;-82
2021/12/31 10:55:22;;;;;;;1.67;1.23;;;;;;;14.81;65.79;97843.63;5993510;23;20335;-83
2021/12/31 10:57:50;;;;;;;2.60;1.30;;;;;;;14.97;66.20;97855.75;5969003;23;20238;-83
2021/12/31 11:00:16;;;;;;;2.75;1.30;;;;;;;15.01;65.16;97852.63;6003407;23;20381;-82
2021/12/31 11:02:44;;;;;;;1.50;1.15;;;;;;;14.93;66.72;97869.66;6027239;23;20187;-82
2021/12/31 11:05:12;;;;;;;2.00;1.33;;;;;;;14.97;65.52;97852.34;6027603;23;20661;-82
2021/12/31 11:07:39;;;;;;;1.73;1.10;;;;;;;15.01;65.71;97840.31;5993801;23;20268;-83
2021/12/31 11:10:06;;;;;;;1.40;1.17;;;;;;;14.96;65.89;97829.81;6027153;23;20194;-82
2021/12/31 11:12:32;;;;;;;1.60;1.27;;;;;;;15.05;66.46;97833.50;6017333;23;20257;-82
2021/12/31 11:14:58;;;;;;;4.38;1.98;;;;;;;15.03;66.97;97819.06;6026983;23;20264;-82
2021/12/31 11:17:24;;;;;;;3.65;1.42;;;;;;;15.08;67.21;97819.88;6002768;23;20182;-82
2021/12/31 11:19:50;;;;;;;2.05;1.50;;;;;;;15.12;66.97;97820.94;5965648;23;20605;-82
2021/12/31 11:22:17;;;;;;;2.47;1.42;;;;;;;15.09;65.94;97824.06;6024780;23;20087;-83
2021/12/31 11:24:44;;;;;;;2.15;1.33;;;;;;;14.82;67.36;97813.72;6001940;23;20140;-82
2021/12/31 11:27:28;;;;;;;2.25;1.50;;;;;;;14.97;66.69;97810.38;5993889;23;20234;-83
2021/12/31 11:29:55;;;;;;;1.45;1.35;;;;;;;15.30;65.62;97798.69;6016996;23;20201;-83
2021/12/31 11:32:42;;;;;;;2.03;1.83;;;;;;;15.20;67.01;97803.94;6003018;23;20182;-83